Time;durP1;ratioP1;P1;durP2;ratioP2;P2;SDS_P1;SDS_P2;PMS_P1;PMS_P2;Temp;Humidity;BMP_temperature;BMP_pressure;BME280_temperature;BME280_humidity;BME280_pressure;Samples;Min_cycle;Max_cycle;Signal;HPM_P1;HPM_P2
2021/03/04 00:00:30;;;;;;;74.82;45.85;;;;;;;;;;5094332;28;20237;-63
2021/03/04 00:02:56;;;;;;;71.93;49.20;;;;;;;;;;5093890;28;20204;-63
2021/03/04 00:05:23;;;;;;;68.93;47.40;;;;;;;;;;5093652;28;20208;-63
2021/03/04 00:07:50;;;;;;;75.20;47.78;;;;;;;;;;5102520;28;20223;-63
2021/03/04 00:10:17;;;;;;;75.20;45.95;;;;;;;;;;5106470;28;20208;-63
2021/03/04 00:12:44;;;;;;;75.35;47.78;;;;;;;;;;5100082;28;20201;-63
2021/03/04 00:15:13;;;;;;;79.25;46.38;;;;;;;;;;5093982;28;20196;-63
2021/03/04 00:17:40;;;;;;;70.65;44.03;;;;;;;;;;5095502;28;20230;-64
2021/03/04 00:20:08;;;;;;;74.18;42.40;;;;;;;;;;5098850;28;20574;-63
2021/03/04 00:22:35;;;;;;;69.13;42.60;;;;;;;;;;5095622;28;20668;-63
2021/03/04 00:25:01;;;;;;;65.57;42.67;;;;;;;;;;5097814;28;20593;-62
2021/03/04 00:27:28;;;;;;;72.72;43.53;;;;;;;;;;5097681;28;20648;-62
2021/03/04 00:29:55;;;;;;;74.97;43.35;;;;;;;;;;5097803;28;20204;-63
2021/03/04 00:32:22;;;;;;;69.68;41.60;;;;;;;;;;5097444;28;20203;-63
2021/03/04 00:34:49;;;;;;;62.05;37.95;;;;;;;;;;5097740;28;20224;-63
2021/03/04 00:37:16;;;;;;;73.60;42.45;;;;;;;;;;5097784;28;20572;-62
2021/03/04 00:39:43;;;;;;;79.20;44.13;;;;;;;;;;5097419;28;20694;-63
2021/03/04 00:42:09;;;;;;;67.03;41.78;;;;;;;;;;5100174;28;20664;-62
2021/03/04 00:44:36;;;;;;;71.93;43.28;;;;;;;;;;5099935;28;20231;-62
2021/03/04 00:47:03;;;;;;;74.63;43.10;;;;;;;;;;5097993;28;20729;-63
2021/03/04 00:49:31;;;;;;;76.63;41.97;;;;;;;;;;5098776;28;20216;-63
2021/03/04 00:51:57;;;;;;;68.30;40.30;;;;;;;;;;5099679;28;20204;-62
2021/03/04 00:54:24;;;;;;;73.35;43.70;;;;;;;;;;5102196;28;20220;-63
2021/03/04 00:56:51;;;;;;;79.55;42.25;;;;;;;;;;5100878;28;20212;-63
2021/03/04 00:59:18;;;;;;;71.93;43.92;;;;;;;;;;5101187;28;20197;-63
2021/03/04 01:01:45;;;;;;;72.32;44.50;;;;;;;;;;5101527;28;20201;-63
2021/03/04 01:04:12;;;;;;;75.93;42.50;;;;;;;;;;5117559;28;20231;-63
2021/03/04 01:06:39;;;;;;;74.85;42.80;;;;;;;;;;5108388;28;20235;-62
2021/03/04 01:09:06;;;;;;;72.53;42.10;;;;;;;;;;5096856;28;20722;-63
2021/03/04 01:11:33;;;;;;;73.20;41.33;;;;;;;;;;5096682;28;20675;-62
2021/03/04 01:14:00;;;;;;;71.55;42.38;;;;;;;;;;5096818;28;20289;-63
2021/03/04 01:16:27;;;;;;;84.75;47.22;;;;;;;;;;5096880;28;20196;-63
2021/03/04 01:18:53;;;;;;;78.30;44.22;;;;;;;;;;5096375;28;20196;-62
2021/03/04 01:21:20;;;;;;;79.30;42.33;;;;;;;;;;5096580;28;20668;-63
2021/03/04 01:23:48;;;;;;;77.18;44.35;;;;;;;;;;5096669;28;20586;-62
2021/03/04 01:26:15;;;;;;;76.05;42.85;;;;;;;;;;5096227;28;20254;-63
2021/03/04 01:28:41;;;;;;;88.32;43.40;;;;;;;;;;5096429;28;20216;-63
2021/03/04 01:31:08;;;;;;;82.63;43.15;;;;;;;;;;5096511;28;20200;-63
2021/03/04 01:33:35;;;;;;;67.03;38.55;;;;;;;;;;5106242;28;20204;-63
2021/03/04 01:36:02;;;;;;;81.95;46.22;;;;;;;;;;5112330;28;20196;-63
2021/03/04 01:38:28;;;;;;;82.88;45.75;;;;;;;;;;5098001;28;20196;-62
2021/03/04 01:40:56;;;;;;;83.22;46.95;;;;;;;;;;5100080;28;20200;-63
2021/03/04 01:43:23;;;;;;;79.43;44.15;;;;;;;;;;5098212;28;20257;-63
2021/03/04 01:45:49;;;;;;;85.10;46.05;;;;;;;;;;5105371;28;20196;-62
2021/03/04 01:48:16;;;;;;;81.57;45.92;;;;;;;;;;5107002;28;20216;-63
2021/03/04 01:50:43;;;;;;;80.53;45.50;;;;;;;;;;5109630;28;20211;-63
2021/03/04 01:53:10;;;;;;;80.85;43.90;;;;;;;;;;5098813;28;20220;-63
2021/03/04 01:55:37;;;;;;;79.53;43.63;;;;;;;;;;5102616;28;20208;-63
2021/03/04 01:58:05;;;;;;;74.80;43.30;;;;;;;;;;5101498;28;20204;-63
2021/03/04 02:00:32;;;;;;;72.95;41.58;;;;;;;;;;5095754;28;20212;-61
2021/03/04 02:02:59;;;;;;;81.47;43.42;;;;;;;;;;5095817;28;20207;-63
2021/03/04 02:05:26;;;;;;;78.75;44.85;;;;;;;;;;5096001;28;20197;-63
2021/03/04 02:07:59;;;;;;;85.85;44.38;;;;;;;;;;5095720;28;20278;-63
2021/03/04 02:10:30;;;;;;;81.60;44.10;;;;;;;;;;5095741;28;20238;-63
2021/03/04 02:13:01;;;;;;;81.07;43.63;;;;;;;;;;5095775;28;20207;-62
2021/03/04 02:15:30;;;;;;;82.13;45.15;;;;;;;;;;5095915;28;20188;-63
2021/03/04 02:17:57;;;;;;;86.03;44.42;;;;;;;;;;5098555;28;20197;-63
2021/03/04 02:20:29;;;;;;;79.32;43.90;;;;;;;;;;5095914;28;20204;-63
2021/03/04 02:23:11;;;;;;;78.95;44.88;;;;;;;;;;5095630;28;20648;-62
2021/03/04 02:25:44;;;;;;;86.18;45.03;;;;;;;;;;5096017;28;20189;-62
2021/03/04 02:28:12;;;;;;;79.05;40.45;;;;;;;;;;5095137;28;20292;-63
2021/03/04 02:30:40;;;;;;;79.55;39.03;;;;;;;;;;5095901;28;20207;-63
2021/03/04 02:33:09;;;;;;;80.60;43.97;;;;;;;;;;5095251;28;20228;-62
2021/03/04 02:35:36;;;;;;;75.40;40.80;;;;;;;;;;5095319;28;20594;-62
2021/03/04 02:38:04;;;;;;;87.03;41.70;;;;;;;;;;5095236;28;20204;-62
2021/03/04 02:40:32;;;;;;;81.22;42.33;;;;;;;;;;5095418;28;20226;-62
2021/03/04 02:42:59;;;;;;;86.22;43.47;;;;;;;;;;5095380;28;20253;-63
2021/03/04 02:45:27;;;;;;;69.32;38.47;;;;;;;;;;5095460;28;20257;-63
2021/03/04 02:47:55;;;;;;;77.35;41.80;;;;;;;;;;5094837;28;20223;-62
2021/03/04 02:50:23;;;;;;;78.20;42.28;;;;;;;;;;5101149;28;20196;-61
2021/03/04 02:52:50;;;;;;;70.68;38.33;;;;;;;;;;5095491;28;20538;-62
2021/03/04 02:55:18;;;;;;;72.95;38.13;;;;;;;;;;5095069;28;20333;-61
2021/03/04 02:57:47;;;;;;;78.35;41.00;;;;;;;;;;5094614;28;20254;-61
2021/03/04 03:00:15;;;;;;;87.70;41.85;;;;;;;;;;5094851;28;20580;-62
2021/03/04 03:02:45;;;;;;;84.57;40.88;;;;;;;;;;5094784;28;20556;-62
2021/03/04 03:05:12;;;;;;;79.75;41.97;;;;;;;;;;5094816;28;20295;-63
2021/03/04 03:07:40;;;;;;;81.55;40.03;;;;;;;;;;5094322;28;20215;-63
2021/03/04 03:10:08;;;;;;;86.68;44.88;;;;;;;;;;5096609;28;20219;-63
2021/03/04 03:12:37;;;;;;;78.00;38.15;;;;;;;;;;5100420;28;20204;-62
2021/03/04 03:15:06;;;;;;;83.68;41.72;;;;;;;;;;5096746;28;20220;-62
2021/03/04 03:17:33;;;;;;;91.65;42.45;;;;;;;;;;5096888;28;20673;-62
2021/03/04 03:20:00;;;;;;;95.55;44.38;;;;;;;;;;5096542;28;20208;-62
2021/03/04 03:22:27;;;;;;;84.63;41.10;;;;;;;;;;5098709;28;20204;-62
2021/03/04 03:24:54;;;;;;;87.53;40.75;;;;;;;;;;5099768;28;20224;-64
2021/03/04 03:27:20;;;;;;;84.68;43.28;;;;;;;;;;5102148;28;20200;-62
2021/03/04 03:29:47;;;;;;;93.50;43.50;;;;;;;;;;5100740;28;20277;-63
2021/03/04 03:32:15;;;;;;;89.05;42.00;;;;;;;;;;5097606;28;20208;-62
2021/03/04 03:34:42;;;;;;;92.10;41.33;;;;;;;;;;5094375;28;20242;-62
2021/03/04 03:37:10;;;;;;;101.07;43.83;;;;;;;;;;5093709;28;20676;-62
2021/03/04 03:39:37;;;;;;;93.57;43.03;;;;;;;;;;5093836;28;20716;-62
2021/03/04 03:42:05;;;;;;;96.53;43.53;;;;;;;;;;5095047;28;20196;-63
2021/03/04 03:44:32;;;;;;;91.78;45.70;;;;;;;;;;5097755;28;20227;-63
2021/03/04 03:46:59;;;;;;;88.18;41.20;;;;;;;;;;5093734;28;20664;-62
2021/03/04 03:49:27;;;;;;;82.20;40.75;;;;;;;;;;5093839;28;20216;-62
2021/03/04 03:51:55;;;;;;;76.78;40.75;;;;;;;;;;5093689;28;20204;-63
2021/03/04 03:54:23;;;;;;;74.22;41.08;;;;;;;;;;5093800;28;20220;-63
2021/03/04 03:56:50;;;;;;;87.97;40.13;;;;;;;;;;5093844;28;20302;-63
2021/03/04 03:59:17;;;;;;;73.15;39.92;;;;;;;;;;5093950;28;20196;-63
2021/03/04 04:01:44;;;;;;;72.40;38.90;;;;;;;;;;5093695;28;20204;-63
2021/03/04 04:04:11;;;;;;;80.45;39.40;;;;;;;;;;5093619;28;20277;-62
2021/03/04 04:07:51;;;;;;;76.18;34.50;;;;;;;;;;5132373;27;20599;-62
2021/03/04 04:10:18;;;;;;;87.80;39.90;;;;;;;;;;5131531;27;20662;-62
2021/03/04 04:12:44;;;;;;;83.70;38.90;;;;;;;;;;5131558;27;20203;-62
2021/03/04 04:15:12;;;;;;;76.90;38.28;;;;;;;;;;5131595;27;20670;-63
2021/03/04 04:17:39;;;;;;;90.88;40.38;;;;;;;;;;5131636;27;20195;-62
2021/03/04 04:20:06;;;;;;;84.00;40.65;;;;;;;;;;5133731;27;20199;-62
2021/03/04 04:22:33;;;;;;;93.07;38.80;;;;;;;;;;5133025;27;20259;-63
2021/03/04 04:25:01;;;;;;;80.70;38.30;;;;;;;;;;5132072;27;20222;-63
2021/03/04 04:27:28;;;;;;;80.93;36.83;;;;;;;;;;5132204;27;20226;-62
2021/03/04 04:29:54;;;;;;;87.20;38.28;;;;;;;;;;5131764;27;20743;-62
2021/03/04 04:32:21;;;;;;;90.30;39.00;;;;;;;;;;5131868;27;20203;-61
2021/03/04 04:34:48;;;;;;;80.63;39.40;;;;;;;;;;5132785;27;20291;-63
2021/03/04 04:37:15;;;;;;;84.40;38.67;;;;;;;;;;5147254;27;20224;-62
2021/03/04 04:39:42;;;;;;;80.80;36.38;;;;;;;;;;5143350;27;20250;-60
2021/03/04 04:42:10;;;;;;;85.20;38.05;;;;;;;;;;5137675;27;20278;-62
2021/03/04 04:44:36;;;;;;;86.45;36.13;;;;;;;;;;5140777;27;20219;-62
2021/03/04 04:47:03;;;;;;;90.97;40.65;;;;;;;;;;5143212;27;20269;-62
2021/03/04 04:49:30;;;;;;;83.68;38.72;;;;;;;;;;5142739;27;20247;-63
2021/03/04 04:51:57;;;;;;;90.80;39.03;;;;;;;;;;5142802;27;20203;-61
2021/03/04 04:54:23;;;;;;;84.97;36.85;;;;;;;;;;5133150;27;20223;-62
2021/03/04 04:56:50;;;;;;;81.57;37.47;;;;;;;;;;5131297;27;20272;-62
2021/03/04 04:59:18;;;;;;;88.28;37.80;;;;;;;;;;5133026;27;20592;-62
2021/03/04 05:01:44;;;;;;;90.88;39.28;;;;;;;;;;5135841;27;20195;-62
2021/03/04 05:04:11;;;;;;;91.82;40.45;;;;;;;;;;5130881;27;20219;-62
2021/03/04 05:06:38;;;;;;;95.15;40.90;;;;;;;;;;5130502;27;20215;-63
2021/03/04 05:09:05;;;;;;;88.72;38.95;;;;;;;;;;5130825;27;20650;-62
2021/03/04 05:11:32;;;;;;;91.70;38.25;;;;;;;;;;5130847;27;20605;-62
2021/03/04 05:13:58;;;;;;;99.90;41.40;;;;;;;;;;5130597;27;20215;-62
2021/03/04 05:16:26;;;;;;;88.55;37.97;;;;;;;;;;5130686;27;20198;-62
2021/03/04 05:18:53;;;;;;;93.47;39.95;;;;;;;;;;5121369;27;20732;-62
2021/03/04 05:21:20;;;;;;;98.13;41.13;;;;;;;;;;5119733;28;20204;-62
2021/03/04 05:23:46;;;;;;;98.22;40.67;;;;;;;;;;5116532;28;20219;-62
2021/03/04 05:26:13;;;;;;;93.28;39.78;;;;;;;;;;5116722;28;20215;-63
2021/03/04 05:28:40;;;;;;;84.38;38.95;;;;;;;;;;5116928;28;20200;-63
2021/03/04 05:31:06;;;;;;;89.68;37.83;;;;;;;;;;5116423;27;20606;-62
2021/03/04 05:33:34;;;;;;;77.30;37.20;;;;;;;;;;5116190;28;20245;-62
2021/03/04 05:36:01;;;;;;;88.82;38.40;;;;;;;;;;5117506;28;20610;-63
2021/03/04 05:38:27;;;;;;;87.63;36.72;;;;;;;;;;5118204;28;20214;-63
2021/03/04 05:40:54;;;;;;;81.10;35.75;;;;;;;;;;5118761;28;20200;-62
2021/03/04 05:43:22;;;;;;;76.85;34.53;;;;;;;;;;5120130;28;20711;-62
2021/03/04 05:45:49;;;;;;;64.97;30.70;;;;;;;;;;5119573;28;20577;-62
2021/03/04 05:48:18;;;;;;;78.63;35.25;;;;;;;;;;5120700;28;20210;-61
2021/03/04 05:50:50;;;;;;;86.10;34.05;;;;;;;;;;5120148;28;20211;-62
2021/03/04 05:53:20;;;;;;;90.50;34.85;;;;;;;;;;5120412;28;20216;-62
2021/03/04 05:55:47;;;;;;;67.85;32.90;;;;;;;;;;5119471;28;20200;-62
2021/03/04 05:58:14;;;;;;;68.90;32.45;;;;;;;;;;5118822;28;20222;-62
2021/03/04 06:00:41;;;;;;;77.32;31.90;;;;;;;;;;5117704;28;20207;-62
2021/03/04 06:03:08;;;;;;;80.93;36.88;;;;;;;;;;5118375;28;20307;-62
2021/03/04 06:05:36;;;;;;;70.40;33.10;;;;;;;;;;5118374;28;20691;-62
2021/03/04 06:08:04;;;;;;;83.00;32.83;;;;;;;;;;5120108;28;20187;-62
2021/03/04 06:10:31;;;;;;;80.22;33.92;;;;;;;;;;5120196;28;20279;-61
2021/03/04 06:12:58;;;;;;;80.30;31.52;;;;;;;;;;5119895;28;20652;-62
2021/03/04 06:15:25;;;;;;;84.55;34.38;;;;;;;;;;5118485;28;20208;-62
2021/03/04 06:17:53;;;;;;;92.45;32.97;;;;;;;;;;5119471;28;20203;-62
2021/03/04 06:20:20;;;;;;;87.47;35.10;;;;;;;;;;5118601;28;20204;-62
2021/03/04 06:22:47;;;;;;;86.63;33.65;;;;;;;;;;5116604;28;20204;-62
2021/03/04 06:25:16;;;;;;;90.50;32.67;;;;;;;;;;5116579;28;20195;-62
2021/03/04 06:27:43;;;;;;;83.60;33.47;;;;;;;;;;5117465;28;20219;-61
2021/03/04 06:30:11;;;;;;;87.50;32.78;;;;;;;;;;5115621;28;20200;-63
2021/03/04 06:32:38;;;;;;;90.35;36.92;;;;;;;;;;5117364;28;20203;-60
2021/03/04 06:35:07;;;;;;;90.93;34.67;;;;;;;;;;5119810;28;20204;-62
2021/03/04 06:37:34;;;;;;;87.13;31.52;;;;;;;;;;5118932;28;20199;-62
2021/03/04 06:40:01;;;;;;;72.53;31.10;;;;;;;;;;5122625;28;20199;-61
2021/03/04 06:42:39;;;;;;;69.38;30.95;;;;;;;;;;5118436;28;20648;-62
2021/03/04 06:45:06;;;;;;;79.82;30.15;;;;;;;;;;5118297;28;20284;-63
2021/03/04 06:47:33;;;;;;;73.50;30.00;;;;;;;;;;5118375;28;20219;-61
2021/03/04 06:50:00;;;;;;;73.22;30.52;;;;;;;;;;5118231;28;20200;-61
2021/03/04 06:52:27;;;;;;;74.45;29.33;;;;;;;;;;5119976;28;20207;-62
2021/03/04 06:54:54;;;;;;;64.00;27.27;;;;;;;;;;5122304;28;20234;-65
2021/03/04 06:57:21;;;;;;;77.25;27.95;;;;;;;;;;5116563;28;20622;-62
2021/03/04 06:59:50;;;;;;;59.67;25.55;;;;;;;;;;5119695;28;20582;-62
2021/03/04 07:02:28;;;;;;;57.40;24.58;;;;;;;;;;5118862;28;20257;-61
2021/03/04 07:04:56;;;;;;;60.58;24.83;;;;;;;;;;5118539;28;20250;-61
2021/03/04 07:07:24;;;;;;;57.08;21.75;;;;;;;;;;5117806;28;20219;-61
2021/03/04 07:09:52;;;;;;;46.65;20.75;;;;;;;;;;5120119;28;20237;-62
2021/03/04 07:12:20;;;;;;;43.15;20.58;;;;;;;;;;5122523;28;20196;-61
2021/03/04 07:14:47;;;;;;;40.65;19.70;;;;;;;;;;5121301;28;20734;-61
2021/03/04 07:17:16;;;;;;;43.92;21.33;;;;;;;;;;5116595;28;20210;-61
2021/03/04 07:19:46;;;;;;;52.00;24.23;;;;;;;;;;5117084;28;20195;-62
2021/03/04 07:22:12;;;;;;;57.17;21.40;;;;;;;;;;5118791;28;20200;-62
2021/03/04 07:24:40;;;;;;;53.28;21.52;;;;;;;;;;5116285;28;20269;-60
2021/03/04 07:27:07;;;;;;;52.55;22.25;;;;;;;;;;5115514;28;20219;-62
2021/03/04 07:29:34;;;;;;;55.88;22.10;;;;;;;;;;5116305;28;20208;-61
2021/03/04 07:32:01;;;;;;;42.58;19.42;;;;;;;;;;5116014;28;20706;-63
2021/03/04 07:34:28;;;;;;;47.03;22.00;;;;;;;;;;5120020;28;20601;-63
2021/03/04 07:36:55;;;;;;;45.40;20.33;;;;;;;;;;5131765;28;20195;-62
2021/03/04 07:39:29;;;;;;;45.67;22.23;;;;;;;;;;5128504;28;20204;-61
2021/03/04 07:41:55;;;;;;;43.50;20.90;;;;;;;;;;5121360;28;20196;-61
2021/03/04 07:44:26;;;;;;;49.30;19.67;;;;;;;;;;5117123;28;20219;-61
2021/03/04 07:46:53;;;;;;;48.70;21.23;;;;;;;;;;5117464;28;20215;-62
2021/03/04 07:49:30;;;;;;;42.80;19.55;;;;;;;;;;5118308;28;20210;-62
2021/03/04 07:52:00;;;;;;;48.50;20.20;;;;;;;;;;5117763;28;20194;-62
2021/03/04 07:54:27;;;;;;;40.60;20.40;;;;;;;;;;5115457;28;20353;-62
2021/03/04 07:57:02;;;;;;;47.58;21.02;;;;;;;;;;5115113;28;20227;-61
2021/03/04 07:59:29;;;;;;;43.35;19.30;;;;;;;;;;5115340;28;20194;-63
2021/03/04 08:01:57;;;;;;;35.50;17.58;;;;;;;;;;5115198;28;20222;-62
2021/03/04 08:04:25;;;;;;;39.33;18.40;;;;;;;;;;5114945;28;20224;-62
2021/03/04 08:06:52;;;;;;;40.00;16.95;;;;;;;;;;5115242;28;20219;-62
2021/03/04 08:09:26;;;;;;;32.70;18.23;;;;;;;;;;5115222;28;20203;-58
2021/03/04 08:11:53;;;;;;;40.38;19.55;;;;;;;;;;5115977;28;20195;-62
2021/03/04 08:14:19;;;;;;;38.25;18.35;;;;;;;;;;5116687;28;20223;-61
2021/03/04 08:16:54;;;;;;;46.92;20.50;;;;;;;;;;5117395;28;20204;-63
2021/03/04 08:19:26;;;;;;;37.88;17.20;;;;;;;;;;5116561;28;20196;-61
2021/03/04 08:21:54;;;;;;;45.92;19.85;;;;;;;;;;5117411;28;20667;-62
2021/03/04 08:24:21;;;;;;;41.28;17.50;;;;;;;;;;5115145;28;20600;-61
2021/03/04 08:26:50;;;;;;;37.90;17.55;;;;;;;;;;5115283;28;20223;-61
2021/03/04 08:29:17;;;;;;;39.78;20.13;;;;;;;;;;5115539;28;20253;-63
2021/03/04 08:31:44;;;;;;;43.72;18.95;;;;;;;;;;5114821;28;20580;-63
2021/03/04 08:34:11;;;;;;;45.15;18.90;;;;;;;;;;5114853;28;20577;-62
2021/03/04 08:36:39;;;;;;;39.83;19.13;;;;;;;;;;5115212;28;20662;-62
2021/03/04 08:39:07;;;;;;;46.42;19.30;;;;;;;;;;5114773;28;20200;-62
2021/03/04 08:41:34;;;;;;;38.55;18.75;;;;;;;;;;5114756;28;20230;-62
2021/03/04 08:44:09;;;;;;;35.85;17.35;;;;;;;;;;5114084;28;20220;-63
2021/03/04 08:46:36;;;;;;;32.80;16.67;;;;;;;;;;5113667;28;20281;-62
2021/03/04 08:49:02;;;;;;;41.08;17.77;;;;;;;;;;5113685;28;20572;-62
2021/03/04 08:51:29;;;;;;;39.45;16.15;;;;;;;;;;5113409;28;20203;-63
2021/03/04 08:53:56;;;;;;;27.23;14.93;;;;;;;;;;5116682;28;20234;-63
2021/03/04 08:56:24;;;;;;;34.85;15.00;;;;;;;;;;5117855;28;20200;-63
2021/03/04 08:58:50;;;;;;;29.40;15.68;;;;;;;;;;5117735;28;20311;-63
2021/03/04 09:01:18;;;;;;;29.55;13.20;;;;;;;;;;5116673;28;20663;-63
2021/03/04 09:03:45;;;;;;;35.55;15.60;;;;;;;;;;5116904;28;20224;-64
2021/03/04 09:06:13;;;;;;;26.77;14.00;;;;;;;;;;5117172;28;20649;-63
2021/03/04 09:08:41;;;;;;;29.13;14.63;;;;;;;;;;5117564;28;20199;-62
2021/03/04 09:11:08;;;;;;;30.90;14.55;;;;;;;;;;5117488;28;20200;-63
2021/03/04 09:13:37;;;;;;;30.80;14.68;;;;;;;;;;5117619;28;20272;-61
2021/03/04 09:16:06;;;;;;;33.10;15.98;;;;;;;;;;5116991;28;20204;-63
2021/03/04 09:18:33;;;;;;;32.75;14.93;;;;;;;;;;5116684;28;20303;-63
2021/03/04 09:21:00;;;;;;;30.65;13.40;;;;;;;;;;5117325;28;20609;-62
2021/03/04 09:23:27;;;;;;;26.45;12.85;;;;;;;;;;5118938;28;20219;-62
2021/03/04 09:25:57;;;;;;;37.63;15.90;;;;;;;;;;5117067;28;20199;-62
2021/03/04 09:28:23;;;;;;;25.50;13.70;;;;;;;;;;5116799;28;20232;-62
2021/03/04 09:30:51;;;;;;;22.80;12.32;;;;;;;;;;5116945;28;20199;-63
2021/03/04 09:33:19;;;;;;;23.08;12.90;;;;;;;;;;5116495;27;20223;-62
2021/03/04 09:35:59;;;;;;;31.20;16.05;;;;;;;;;;5116344;28;20199;-63
2021/03/04 09:38:26;;;;;;;27.33;13.77;;;;;;;;;;5116371;28;20231;-63
2021/03/04 09:40:54;;;;;;;27.60;13.80;;;;;;;;;;5116039;28;20210;-62
2021/03/04 09:43:22;;;;;;;28.52;14.43;;;;;;;;;;5117919;28;20231;-62
2021/03/04 09:45:51;;;;;;;26.25;13.05;;;;;;;;;;5118967;28;20206;-61
2021/03/04 09:48:18;;;;;;;30.35;13.88;;;;;;;;;;5118686;28;20199;-62
2021/03/04 09:50:52;;;;;;;33.55;16.00;;;;;;;;;;5117161;28;20206;-61
2021/03/04 09:53:19;;;;;;;38.60;16.25;;;;;;;;;;5116413;28;20540;-63
2021/03/04 09:55:46;;;;;;;30.00;15.10;;;;;;;;;;5116406;28;20630;-64
2021/03/04 09:58:13;;;;;;;31.63;15.80;;;;;;;;;;5116368;28;20221;-63
2021/03/04 10:00:40;;;;;;;34.10;15.65;;;;;;;;;;5116226;28;20196;-62
2021/03/04 10:03:08;;;;;;;31.80;15.40;;;;;;;;;;5115951;28;20707;-61
2021/03/04 10:05:45;;;;;;;31.10;14.23;;;;;;;;;;5116162;28;20200;-63
2021/03/04 10:08:12;;;;;;;31.92;14.80;;;;;;;;;;5116011;28;20670;-64
2021/03/04 10:10:38;;;;;;;32.95;14.90;;;;;;;;;;5115890;28;20687;-64
2021/03/04 10:13:05;;;;;;;34.97;15.90;;;;;;;;;;5115977;28;20695;-62
2021/03/04 10:15:33;;;;;;;27.20;13.95;;;;;;;;;;5115966;28;20211;-64
2021/03/04 10:18:00;;;;;;;25.77;13.15;;;;;;;;;;5124409;28;20199;-62
2021/03/04 10:20:27;;;;;;;24.63;13.50;;;;;;;;;;5133588;28;20233;-63
2021/03/04 10:22:55;;;;;;;29.83;13.27;;;;;;;;;;5126649;28;20219;-63
2021/03/04 10:25:22;;;;;;;24.15;14.00;;;;;;;;;;5125023;28;20208;-64
2021/03/04 10:27:49;;;;;;;27.02;12.70;;;;;;;;;;5124819;28;20212;-63
2021/03/04 10:30:17;;;;;;;25.80;13.02;;;;;;;;;;5118766;28;20248;-64
2021/03/04 10:32:44;;;;;;;31.73;15.90;;;;;;;;;;5116692;28;20298;-62
2021/03/04 10:35:12;;;;;;;28.73;14.70;;;;;;;;;;5115828;28;20336;-65
2021/03/04 10:37:39;;;;;;;33.60;15.90;;;;;;;;;;5116347;27;20191;-63
2021/03/04 10:40:08;;;;;;;33.72;15.68;;;;;;;;;;5118940;28;20203;-63
2021/03/04 10:42:35;;;;;;;26.63;13.95;;;;;;;;;;5129968;28;20221;-63
2021/03/04 10:45:02;;;;;;;32.83;15.77;;;;;;;;;;5125496;28;20229;-64
2021/03/04 10:47:29;;;;;;;29.73;16.05;;;;;;;;;;5119587;28;20632;-62
2021/03/04 10:49:55;;;;;;;31.83;16.15;;;;;;;;;;5121395;28;20571;-63
2021/03/04 10:52:23;;;;;;;31.58;15.25;;;;;;;;;;5120579;28;20195;-63
2021/03/04 10:54:50;;;;;;;35.05;15.00;;;;;;;;;;5119539;28;20247;-63
2021/03/04 10:57:18;;;;;;;26.50;13.93;;;;;;;;;;5118605;28;20272;-62
2021/03/04 10:59:44;;;;;;;30.80;14.13;;;;;;;;;;5119095;28;20694;-63
2021/03/04 11:02:11;;;;;;;28.40;12.50;;;;;;;;;;5117631;28;20200;-62
2021/03/04 11:04:38;;;;;;;24.08;11.55;;;;;;;;;;5117842;28;20219;-62
2021/03/04 11:07:05;;;;;;;24.42;13.23;;;;;;;;;;5116931;28;20223;-61
2021/03/04 11:09:32;;;;;;;25.30;13.07;;;;;;;;;;5116297;28;20204;-62
2021/03/04 11:11:58;;;;;;;26.80;14.93;;;;;;;;;;5115989;28;20199;-63
2021/03/04 11:14:26;;;;;;;25.23;13.48;;;;;;;;;;5116124;28;20268;-62
2021/03/04 11:16:53;;;;;;;22.48;11.15;;;;;;;;;;5115114;28;20613;-62
2021/03/04 11:19:19;;;;;;;25.63;12.30;;;;;;;;;;5115357;28;20195;-62
2021/03/04 11:21:46;;;;;;;24.33;12.40;;;;;;;;;;5116108;28;20207;-62
2021/03/04 11:24:13;;;;;;;26.83;12.85;;;;;;;;;;5116225;28;20272;-61
2021/03/04 11:26:40;;;;;;;25.73;12.15;;;;;;;;;;5115429;28;20215;-62
2021/03/04 11:29:07;;;;;;;21.40;11.77;;;;;;;;;;5114823;28;20208;-62
2021/03/04 11:31:35;;;;;;;25.48;13.43;;;;;;;;;;5114409;28;20200;-61
2021/03/04 11:34:02;;;;;;;24.10;11.40;;;;;;;;;;5113966;28;20219;-62
2021/03/04 11:36:29;;;;;;;27.75;14.13;;;;;;;;;;5114152;28;20192;-62
2021/03/04 11:38:55;;;;;;;22.52;13.57;;;;;;;;;;5114658;28;20244;-62
2021/03/04 11:41:22;;;;;;;24.20;13.07;;;;;;;;;;5113673;28;20202;-63
2021/03/04 11:43:49;;;;;;;31.48;13.90;;;;;;;;;;5113907;28;20569;-62
2021/03/04 11:46:17;;;;;;;25.00;13.65;;;;;;;;;;5114007;28;20199;-63
2021/03/04 11:48:45;;;;;;;25.52;13.68;;;;;;;;;;5115446;28;20203;-62
2021/03/04 11:51:12;;;;;;;25.17;13.10;;;;;;;;;;5114561;28;20219;-63
2021/03/04 11:53:38;;;;;;;24.10;12.80;;;;;;;;;;5115574;28;20224;-63
2021/03/04 11:56:05;;;;;;;29.70;14.27;;;;;;;;;;5115618;28;20564;-62
2021/03/04 11:58:32;;;;;;;28.17;13.10;;;;;;;;;;5114449;28;20208;-61
2021/03/04 12:00:59;;;;;;;26.10;12.77;;;;;;;;;;5116059;28;20200;-62
2021/03/04 12:03:26;;;;;;;27.63;12.85;;;;;;;;;;5115700;28;20241;-62
2021/03/04 12:05:54;;;;;;;20.58;12.43;;;;;;;;;;5115824;28;20675;-63
2021/03/04 12:08:20;;;;;;;25.52;12.88;;;;;;;;;;5115109;28;20204;-63
2021/03/04 12:10:47;;;;;;;24.92;11.35;;;;;;;;;;5117878;28;20196;-61
2021/03/04 12:13:14;;;;;;;20.85;10.57;;;;;;;;;;5122739;28;20302;-63
2021/03/04 12:15:41;;;;;;;23.70;11.07;;;;;;;;;;5116236;28;20222;-62
2021/03/04 12:18:08;;;;;;;24.02;12.32;;;;;;;;;;5117187;28;20199;-62
2021/03/04 12:20:35;;;;;;;18.35;11.32;;;;;;;;;;5115714;28;20199;-61
2021/03/04 12:23:03;;;;;;;18.60;11.07;;;;;;;;;;5117631;28;20223;-62
2021/03/04 12:25:30;;;;;;;21.55;11.57;;;;;;;;;;5115502;28;20212;-61
2021/03/04 12:27:56;;;;;;;20.00;10.35;;;;;;;;;;5115264;28;20222;-62
2021/03/04 12:30:24;;;;;;;18.92;9.93;;;;;;;;;;5119124;27;20574;-62
2021/03/04 12:32:51;;;;;;;17.85;10.35;;;;;;;;;;5118986;27;20203;-63
2021/03/04 12:35:18;;;;;;;18.27;9.88;;;;;;;;;;5118205;28;20200;-61
2021/03/04 12:37:44;;;;;;;19.20;11.85;;;;;;;;;;5118358;28;20615;-62
2021/03/04 12:40:13;;;;;;;22.10;11.80;;;;;;;;;;5119865;28;20211;-61
2021/03/04 12:42:40;;;;;;;19.63;10.85;;;;;;;;;;5125575;28;20285;-63
2021/03/04 12:45:07;;;;;;;19.23;11.30;;;;;;;;;;5124098;28;20524;-62
2021/03/04 12:47:34;;;;;;;21.65;10.65;;;;;;;;;;5121561;28;20288;-62
2021/03/04 12:50:03;;;;;;;19.65;11.20;;;;;;;;;;5125232;28;20601;-63
2021/03/04 12:52:29;;;;;;;18.65;10.40;;;;;;;;;;5122212;28;20199;-62
2021/03/04 12:54:56;;;;;;;20.08;11.85;;;;;;;;;;5118950;28;20643;-62
2021/03/04 12:57:24;;;;;;;17.08;10.18;;;;;;;;;;5119356;28;20200;-62
2021/03/04 12:59:51;;;;;;;21.25;11.32;;;;;;;;;;5117573;28;20804;-61
2021/03/04 13:02:17;;;;;;;20.60;10.32;;;;;;;;;;5117920;27;20211;-63
2021/03/04 13:04:44;;;;;;;15.18;9.10;;;;;;;;;;5118368;28;20686;-62
2021/03/04 13:07:11;;;;;;;21.17;11.45;;;;;;;;;;5119314;28;20782;-63
2021/03/04 13:09:40;;;;;;;14.50;8.35;;;;;;;;;;5120598;28;20210;-61
2021/03/04 13:12:07;;;;;;;14.60;8.55;;;;;;;;;;5128130;28;20211;-63
2021/03/04 13:14:35;;;;;;;16.60;9.30;;;;;;;;;;5128522;28;20241;-63
2021/03/04 13:17:01;;;;;;;11.13;7.40;;;;;;;;;;5121519;28;20203;-63
2021/03/04 13:19:28;;;;;;;14.90;8.63;;;;;;;;;;5120633;28;20199;-62
2021/03/04 13:21:55;;;;;;;13.55;7.55;;;;;;;;;;5121311;28;20336;-62
2021/03/04 13:24:22;;;;;;;12.15;7.95;;;;;;;;;;5121019;28;20223;-62
2021/03/04 13:26:48;;;;;;;11.30;7.60;;;;;;;;;;5120624;28;20219;-61
2021/03/04 13:29:15;;;;;;;11.32;7.65;;;;;;;;;;5122140;27;20226;-62
2021/03/04 13:31:43;;;;;;;11.88;7.72;;;;;;;;;;5119378;28;20203;-62
2021/03/04 13:34:09;;;;;;;13.98;9.10;;;;;;;;;;5118870;28;20220;-62
2021/03/04 13:36:36;;;;;;;15.25;8.40;;;;;;;;;;5119542;28;20711;-62
2021/03/04 13:39:04;;;;;;;17.65;9.30;;;;;;;;;;5119707;27;20246;-62
2021/03/04 13:41:30;;;;;;;21.05;10.98;;;;;;;;;;5119415;28;20578;-62
2021/03/04 13:43:57;;;;;;;14.70;9.70;;;;;;;;;;5117992;28;20223;-61
2021/03/04 13:46:24;;;;;;;17.73;9.43;;;;;;;;;;5117205;28;20660;-62
2021/03/04 13:48:51;;;;;;;15.25;7.88;;;;;;;;;;5118006;28;20711;-60
2021/03/04 13:51:19;;;;;;;14.85;8.13;;;;;;;;;;5122824;28;20204;-62
2021/03/04 13:53:45;;;;;;;17.33;8.45;;;;;;;;;;5128421;28;20219;-62
2021/03/04 13:56:12;;;;;;;17.42;9.55;;;;;;;;;;5119980;27;20203;-62
2021/03/04 13:58:39;;;;;;;13.75;8.25;;;;;;;;;;5120045;28;20196;-62
2021/03/04 14:01:06;;;;;;;10.45;7.82;;;;;;;;;;5118350;28;20252;-62
2021/03/04 14:03:33;;;;;;;11.50;7.53;;;;;;;;;;5124733;28;20215;-62
2021/03/04 14:06:01;;;;;;;9.00;7.35;;;;;;;;;;5120151;28;20215;-63
2021/03/04 14:08:28;;;;;;;10.13;7.15;;;;;;;;;;5120933;28;20242;-62
2021/03/04 14:10:55;;;;;;;13.35;7.43;;;;;;;;;;5117345;28;20235;-62
2021/03/04 14:13:22;;;;;;;11.30;6.85;;;;;;;;;;5116476;28;20231;-62
2021/03/04 14:15:49;;;;;;;13.95;8.38;;;;;;;;;;5117002;28;20199;-61
2021/03/04 14:18:15;;;;;;;11.63;7.43;;;;;;;;;;5116474;28;20241;-62
2021/03/04 14:20:42;;;;;;;11.05;7.35;;;;;;;;;;5118397;28;20583;-61